Time;durP1;ratioP1;P1;durP2;ratioP2;P2;SDS_P1;SDS_P2;PMS_P1;PMS_P2;Temp;Humidity;BMP_temperature;BMP_pressure;BME280_temperature;BME280_humidity;BME280_pressure;Samples;Min_cycle;Max_cycle;Signal;HPM_P1;HPM_P2
2024/02/24 00:01:54;;;;;;;22.00;15.55;;;;;;;-145.63;100.00;61273.97;5029410;28;20041;-65
2024/02/24 00:04:19;;;;;;;19.92;15.90;;;;;;;-145.63;100.00;61273.97;5026054;28;20067;-64
2024/02/24 00:06:45;;;;;;;21.05;15.48;;;;;;;-145.63;100.00;61273.97;5010961;28;20030;-64
2024/02/24 00:09:11;;;;;;;24.42;17.73;;;;;;;-145.63;100.00;61273.97;4995906;28;20034;-64
2024/02/24 00:11:36;;;;;;;25.00;17.23;;;;;;;-145.63;100.00;61273.97;5015128;28;20037;-65
2024/02/24 00:14:02;;;;;;;22.98;17.63;;;;;;;-145.63;100.00;61273.97;5000265;28;20038;-65
2024/02/24 00:16:27;;;;;;;21.42;16.02;;;;;;;-145.63;100.00;61273.97;5005932;28;20034;-64
2024/02/24 00:18:55;;;;;;;22.67;17.92;;;;;;;-145.63;100.00;61273.97;5009500;28;20026;-63
2024/02/24 00:21:22;;;;;;;23.77;18.13;;;;;;;-145.63;100.00;61273.97;4997755;28;20030;-64
2024/02/24 00:23:47;;;;;;;26.13;18.33;;;;;;;-145.63;100.00;61273.97;5035070;28;20069;-66
2024/02/24 00:26:13;;;;;;;20.67;16.10;;;;;;;-145.63;100.00;61273.97;5034414;28;20112;-64
2024/02/24 00:28:44;;;;;;;21.42;15.52;;;;;;;-145.63;100.00;61273.97;5022915;28;20062;-65
2024/02/24 00:31:10;;;;;;;21.73;15.30;;;;;;;-145.63;100.00;61273.97;5022374;28;20041;-65
2024/02/24 00:33:35;;;;;;;17.58;14.30;;;;;;;-145.63;100.00;61273.97;5032046;28;20432;-65
2024/02/24 00:36:03;;;;;;;17.77;13.82;;;;;;;-145.63;100.00;61273.97;5015173;28;20046;-64
2024/02/24 00:38:29;;;;;;;23.75;15.60;;;;;;;-145.63;100.00;61273.97;4996661;28;20034;-64
2024/02/24 00:40:54;;;;;;;18.77;14.65;;;;;;;-145.63;100.00;61273.97;5009024;28;20030;-64
2024/02/24 00:43:20;;;;;;;18.45;13.98;;;;;;;-145.63;100.00;61273.97;5013277;28;20036;-64
2024/02/24 00:45:47;;;;;;;17.90;14.20;;;;;;;-145.63;100.00;61273.97;5018724;28;20112;-64
2024/02/24 00:48:12;;;;;;;17.33;13.95;;;;;;;-145.63;100.00;61273.97;5034443;28;20100;-64
2024/02/24 00:50:38;;;;;;;16.10;13.07;;;;;;;-145.63;100.00;61273.97;5015022;28;20057;-64
2024/02/24 00:53:03;;;;;;;20.55;13.57;;;;;;;-145.63;100.00;61273.97;5014732;28;20033;-64
2024/02/24 00:55:29;;;;;;;16.70;13.32;;;;;;;-145.63;100.00;61273.97;5004381;28;20389;-65
2024/02/24 00:57:55;;;;;;;17.88;13.82;;;;;;;-145.63;100.00;61273.97;5005494;28;20387;-64
2024/02/24 01:00:21;;;;;;;18.25;13.32;;;;;;;-145.63;100.00;61273.97;5013410;28;20391;-64
2024/02/24 01:02:47;;;;;;;18.70;13.38;;;;;;;-145.63;100.00;61273.97;4995058;28;20048;-64
2024/02/24 01:05:12;;;;;;;20.83;14.13;;;;;;;-145.63;100.00;61273.97;5010850;28;20448;-64
2024/02/24 01:07:38;;;;;;;16.70;13.20;;;;;;;-145.63;100.00;61273.97;5014229;28;20567;-63
2024/02/24 01:10:04;;;;;;;19.15;14.13;;;;;;;-145.63;100.00;61273.97;5007808;28;20026;-64
2024/02/24 01:12:29;;;;;;;16.23;12.57;;;;;;;-145.63;100.00;61273.97;4995963;28;20030;-63
2024/02/24 01:14:55;;;;;;;16.85;12.27;;;;;;;-145.63;100.00;61273.97;5013995;28;20395;-63
2024/02/24 01:17:21;;;;;;;17.08;12.85;;;;;;;-145.63;100.00;61273.97;4996930;28;20030;-64
2024/02/24 01:19:47;;;;;;;16.75;12.07;;;;;;;-145.63;100.00;61273.97;5006281;28;20026;-63
2024/02/24 01:22:13;;;;;;;18.85;11.95;;;;;;;-145.63;100.00;61273.97;5006806;28;20031;-65
2024/02/24 01:24:39;;;;;;;17.38;13.52;;;;;;;-145.63;100.00;61273.97;4997132;28;20033;-63
2024/02/24 01:27:05;;;;;;;19.58;13.23;;;;;;;-145.63;100.00;61273.97;5014306;28;20462;-63
2024/02/24 01:29:31;;;;;;;17.35;12.75;;;;;;;-145.63;100.00;61273.97;4995394;28;20030;-63
2024/02/24 01:32:00;;;;;;;18.48;11.93;;;;;;;-145.63;100.00;61273.97;5007437;28;20050;-62
2024/02/24 01:34:29;;;;;;;16.65;12.88;;;;;;;-145.63;100.00;61273.97;5004313;28;20060;-63
2024/02/24 01:36:55;;;;;;;16.65;12.23;;;;;;;-145.63;100.00;61273.97;5006527;28;20032;-64
2024/02/24 01:39:21;;;;;;;17.92;12.93;;;;;;;-145.63;100.00;61273.97;5032918;28;20049;-62
2024/02/24 01:41:47;;;;;;;18.25;12.88;;;;;;;-145.63;100.00;61273.97;5013770;28;20037;-64
2024/02/24 01:44:18;;;;;;;19.85;13.57;;;;;;;-145.63;100.00;61273.97;5013596;28;20076;-64
2024/02/24 01:46:47;;;;;;;19.98;14.55;;;;;;;-145.63;100.00;61273.97;5002055;28;20360;-64
2024/02/24 01:49:14;;;;;;;21.27;14.43;;;;;;;-145.63;100.00;61273.97;5001378;28;20029;-63
2024/02/24 01:51:41;;;;;;;21.80;13.98;;;;;;;-145.63;100.00;61273.97;5013649;28;20041;-63
2024/02/24 01:54:08;;;;;;;20.85;14.95;;;;;;;-145.63;100.00;61273.97;5013511;28;20041;-62
2024/02/24 01:56:37;;;;;;;16.40;12.98;;;;;;;-145.63;100.00;61273.97;4995911;28;20105;-63
2024/02/24 01:59:03;;;;;;;20.17;14.75;;;;;;;-145.63;100.00;61273.97;5003581;28;20031;-63
2024/02/24 02:01:29;;;;;;;22.50;14.25;;;;;;;-145.63;100.00;61273.97;5013324;28;20041;-64
2024/02/24 02:03:56;;;;;;;20.00;14.85;;;;;;;-145.63;100.00;61273.97;5013366;28;20026;-64
2024/02/24 02:06:24;;;;;;;20.23;15.30;;;;;;;-145.63;100.00;61273.97;5013171;28;20491;-65
2024/02/24 02:08:50;;;;;;;20.38;14.55;;;;;;;-145.63;100.00;61273.97;4993940;28;20027;-64
2024/02/24 02:11:16;;;;;;;24.17;17.55;;;;;;;-145.63;100.00;61273.97;5009324;28;20438;-63
2024/02/24 02:13:41;;;;;;;20.23;14.35;;;;;;;-145.63;100.00;61273.97;5002474;28;20037;-64
2024/02/24 02:16:07;;;;;;;20.92;14.43;;;;;;;-145.63;100.00;61273.97;4999974;28;20037;-64
2024/02/24 02:18:33;;;;;;;23.70;15.15;;;;;;;-145.63;100.00;61273.97;5011523;28;20037;-63
2024/02/24 02:21:00;;;;;;;18.63;15.07;;;;;;;-145.63;100.00;61273.97;4994242;28;20042;-65
2024/02/24 02:23:33;;;;;;;25.00;15.70;;;;;;;-145.63;100.00;61273.97;5011396;28;20033;-64
2024/02/24 02:25:59;;;;;;;25.48;15.38;;;;;;;-145.63;100.00;61273.97;4998496;28;20023;-64
2024/02/24 02:28:24;;;;;;;19.75;15.23;;;;;;;-145.63;100.00;61273.97;5002630;28;20029;-64
2024/02/24 02:30:51;;;;;;;22.27;14.75;;;;;;;-145.63;100.00;61273.97;5009576;28;20053;-64
2024/02/24 02:33:17;;;;;;;19.15;14.80;;;;;;;-145.63;100.00;61273.97;4993464;28;20054;-64
2024/02/24 02:35:43;;;;;;;22.08;16.00;;;;;;;-145.63;100.00;61273.97;5012457;28;20038;-64
2024/02/24 02:38:10;;;;;;;20.15;14.85;;;;;;;-145.63;100.00;61273.97;4999005;28;20442;-63
2024/02/24 02:40:36;;;;;;;20.80;15.82;;;;;;;-145.63;100.00;61273.97;5003282;28;20030;-63
2024/02/24 02:43:02;;;;;;;20.42;14.38;;;;;;;-145.63;100.00;61273.97;5013289;28;20042;-65
2024/02/24 02:45:28;;;;;;;20.15;14.63;;;;;;;-145.63;100.00;61273.97;5013024;28;20064;-64
2024/02/24 02:47:54;;;;;;;21.52;15.45;;;;;;;-145.63;100.00;61273.97;5013265;28;20447;-64
2024/02/24 02:50:20;;;;;;;25.42;16.60;;;;;;;-145.63;100.00;61273.97;4997092;28;20039;-63
2024/02/24 02:52:46;;;;;;;20.00;14.52;;;;;;;-145.63;100.00;61273.97;5004377;28;20030;-63
2024/02/24 02:55:12;;;;;;;21.15;15.38;;;;;;;-145.63;100.00;61273.97;5006550;28;20026;-63
2024/02/24 02:57:37;;;;;;;19.65;14.95;;;;;;;-145.63;100.00;61273.97;5033142;28;20053;-64
2024/02/24 03:00:05;;;;;;;23.55;15.25;;;;;;;-145.63;100.00;61273.97;5004305;28;20030;-63
2024/02/24 03:02:31;;;;;;;22.92;16.10;;;;;;;-145.63;100.00;61273.97;5012643;28;20160;-63
2024/02/24 03:04:57;;;;;;;21.10;15.73;;;;;;;-145.63;100.00;61273.97;5012772;28;20101;-64
2024/02/24 03:07:23;;;;;;;21.77;17.33;;;;;;;-145.63;100.00;61273.97;5007369;28;20054;-64
2024/02/24 03:09:48;;;;;;;22.83;16.70;;;;;;;-145.63;100.00;61273.97;5003762;28;20037;-64
2024/02/24 03:12:14;;;;;;;22.48;16.98;;;;;;;-145.63;100.00;61273.97;5036353;28;20029;-62
2024/02/24 03:14:44;;;;;;;23.42;17.75;;;;;;;-145.63;100.00;61273.97;5035872;28;20025;-63
2024/02/24 03:17:10;;;;;;;25.17;17.23;;;;;;;-145.63;100.00;61273.97;5036010;28;20048;-63
2024/02/24 03:19:38;;;;;;;21.77;16.73;;;;;;;-145.63;100.00;61273.97;5026450;28;20026;-63
2024/02/24 03:22:04;;;;;;;22.75;16.63;;;;;;;-145.63;100.00;61273.97;5010805;28;20053;-62
2024/02/24 03:24:29;;;;;;;26.15;17.02;;;;;;;-145.63;100.00;61273.97;4997537;28;20464;-63
2024/02/24 03:26:55;;;;;;;24.45;17.90;;;;;;;-145.63;100.00;61273.97;5015342;28;20423;-63
2024/02/24 03:29:21;;;;;;;26.08;17.25;;;;;;;-145.63;100.00;61273.97;5015670;28;20026;-63
2024/02/24 03:31:46;;;;;;;23.42;16.80;;;;;;;-145.63;100.00;61273.97;5015466;28;20053;-62
2024/02/24 03:34:12;;;;;;;22.92;18.10;;;;;;;-145.63;100.00;61273.97;5016087;28;20398;-64
2024/02/24 03:36:37;;;;;;;26.40;17.83;;;;;;;-145.63;100.00;61273.97;5015330;28;20033;-64
2024/02/24 03:39:03;;;;;;;26.05;19.60;;;;;;;-145.63;100.00;61273.97;5015103;28;20129;-64
2024/02/24 03:41:32;;;;;;;25.90;18.17;;;;;;;-145.63;100.00;61273.97;5012702;28;20057;-63
2024/02/24 03:43:58;;;;;;;22.35;17.98;;;;;;;-145.63;100.00;61273.97;5014719;28;20030;-63
2024/02/24 03:46:24;;;;;;;25.50;18.85;;;;;;;-145.63;100.00;61273.97;5015647;28;20030;-63
2024/02/24 03:48:51;;;;;;;27.23;20.23;;;;;;;-145.63;100.00;61273.97;5014831;28;20162;-62
2024/02/24 03:51:16;;;;;;;27.60;20.15;;;;;;;-145.63;100.00;61273.97;5015743;28;20089;-63
2024/02/24 03:53:42;;;;;;;27.80;19.63;;;;;;;-145.63;100.00;61273.97;5015359;28;20453;-63
2024/02/24 03:56:08;;;;;;;25.63;19.85;;;;;;;-145.63;100.00;61273.97;5015624;28;20399;-63
2024/02/24 03:58:33;;;;;;;27.90;20.17;;;;;;;-145.63;100.00;61273.97;5007889;28;20041;-62
2024/02/24 04:00:59;;;;;;;28.75;20.65;;;;;;;-145.63;100.00;61273.97;5015521;28;20053;-64
2024/02/24 04:03:25;;;;;;;27.70;20.15;;;;;;;-145.63;100.00;61273.97;5015706;28;20034;-64
2024/02/24 04:05:50;;;;;;;28.88;21.60;;;;;;;-145.63;100.00;61273.97;5014976;28;20026;-63
2024/02/24 04:08:16;;;;;;;31.65;21.92;;;;;;;-145.63;100.00;61273.97;5015318;28;20061;-64
2024/02/24 04:10:46;;;;;;;31.17;23.40;;;;;;;-145.63;100.00;61273.97;5013957;28;20464;-65
2024/02/24 04:13:12;;;;;;;28.58;21.75;;;;;;;-145.63;100.00;61273.97;5015313;28;20041;-63
2024/02/24 04:15:37;;;;;;;29.30;21.33;;;;;;;-145.63;100.00;61273.97;5014684;28;20399;-63
2024/02/24 04:18:04;;;;;;;34.85;22.98;;;;;;;-145.63;100.00;61273.97;5014345;28;20044;-63
2024/02/24 04:20:30;;;;;;;31.17;21.52;;;;;;;-145.63;100.00;61273.97;5015397;28;20026;-64
2024/02/24 04:22:55;;;;;;;30.75;22.02;;;;;;;-145.63;100.00;61273.97;5014370;28;20549;-63
2024/02/24 04:25:21;;;;;;;31.70;23.05;;;;;;;-145.63;100.00;61273.97;5014875;28;20356;-64
2024/02/24 04:27:47;;;;;;;28.88;21.45;;;;;;;-145.63;100.00;61273.97;5014180;28;20048;-64
2024/02/24 04:30:12;;;;;;;29.63;21.83;;;;;;;-145.63;100.00;61273.97;5013921;28;20026;-64
2024/02/24 04:32:38;;;;;;;33.10;22.20;;;;;;;-145.63;100.00;61273.97;5015088;28;20053;-63
2024/02/24 04:35:04;;;;;;;27.50;20.60;;;;;;;-145.63;100.00;61273.97;5014643;28;20036;-63
2024/02/24 04:37:30;;;;;;;31.05;21.98;;;;;;;-145.63;100.00;61273.97;5023065;28;20467;-63
2024/02/24 04:39:56;;;;;;;32.05;22.30;;;;;;;-145.63;100.00;61273.97;5021741;28;20033;-63
2024/02/24 04:42:21;;;;;;;29.83;21.38;;;;;;;-145.63;100.00;61273.97;5019704;28;20508;-63
2024/02/24 04:44:49;;;;;;;30.05;21.88;;;;;;;-145.63;100.00;61273.97;5014441;28;20026;-63
2024/02/24 04:47:16;;;;;;;27.40;19.38;;;;;;;-145.63;100.00;61273.97;5014751;28;20042;-63
2024/02/24 04:49:42;;;;;;;29.95;22.02;;;;;;;-145.63;100.00;61273.97;5013592;28;20037;-64
2024/02/24 04:52:07;;;;;;;29.00;20.67;;;;;;;-145.63;100.00;61273.97;5014614;28;20033;-64
2024/02/24 04:54:33;;;;;;;28.33;21.15;;;;;;;-145.63;100.00;61273.97;5014273;28;20028;-63
2024/02/24 04:56:59;;;;;;;29.13;21.08;;;;;;;-145.63;100.00;61273.97;5013535;28;20041;-63
2024/02/24 04:59:24;;;;;;;25.80;19.27;;;;;;;-145.63;100.00;61273.97;5009184;28;20038;-63
2024/02/24 05:01:50;;;;;;;29.20;20.60;;;;;;;-145.63;100.00;61273.97;5014594;28;20504;-62
2024/02/24 05:04:16;;;;;;;29.38;21.48;;;;;;;-145.63;100.00;61273.97;5012232;28;20391;-63
2024/02/24 05:06:42;;;;;;;30.77;21.85;;;;;;;-145.63;100.00;61273.97;5013800;28;20545;-63
2024/02/24 05:09:11;;;;;;;33.53;21.58;;;;;;;-145.63;100.00;61273.97;5010991;28;20034;-64
2024/02/24 05:11:38;;;;;;;29.00;20.25;;;;;;;-145.63;100.00;61273.97;5013893;28;20053;-63
2024/02/24 05:14:04;;;;;;;30.38;20.98;;;;;;;-145.63;100.00;61273.97;5013866;28;20045;-64
2024/02/24 05:16:32;;;;;;;28.70;21.10;;;;;;;-145.63;100.00;61273.97;5014466;28;20025;-63
2024/02/24 05:18:58;;;;;;;30.70;21.02;;;;;;;-145.63;100.00;61273.97;5013957;28;20114;-63
2024/02/24 05:21:24;;;;;;;31.38;21.58;;;;;;;-145.63;100.00;61273.97;5013845;28;20164;-65
2024/02/24 05:23:50;;;;;;;31.48;21.90;;;;;;;-145.63;100.00;61273.97;5012947;28;20101;-66
2024/02/24 05:26:23;;;;;;;34.38;21.70;;;;;;;-145.63;100.00;61273.97;5013761;28;20056;-65
2024/02/24 05:28:49;;;;;;;30.13;20.52;;;;;;;-145.63;100.00;61273.97;5004021;28;20420;-64
2024/02/24 05:31:15;;;;;;;30.35;20.40;;;;;;;-145.63;100.00;61273.97;4995287;28;20034;-64
2024/02/24 05:33:41;;;;;;;28.17;20.20;;;;;;;-145.63;100.00;61273.97;4994953;28;20042;-64
2024/02/24 05:36:07;;;;;;;32.42;22.30;;;;;;;-145.63;100.00;61273.97;5013844;28;20076;-63
2024/02/24 05:38:35;;;;;;;30.15;21.42;;;;;;;-145.63;100.00;61273.97;4997394;28;20037;-64
2024/02/24 05:41:02;;;;;;;32.00;22.17;;;;;;;-145.63;100.00;61273.97;5005945;28;20026;-64
2024/02/24 05:43:28;;;;;;;28.98;21.20;;;;;;;-145.63;100.00;61273.97;5013532;28;20461;-64
2024/02/24 05:45:54;;;;;;;30.52;22.05;;;;;;;-145.63;100.00;61273.97;5013924;28;20083;-63
2024/02/24 05:48:22;;;;;;;29.48;20.50;;;;;;;-145.63;100.00;61273.97;5013395;28;20391;-64
2024/02/24 05:50:49;;;;;;;34.45;21.90;;;;;;;-145.63;100.00;61273.97;4995433;28;20081;-62
2024/02/24 05:53:15;;;;;;;29.52;21.70;;;;;;;-145.63;100.00;61273.97;5007216;28;20463;-63
2024/02/24 05:55:43;;;;;;;31.30;21.33;;;;;;;-145.63;100.00;61273.97;5004593;28;20046;-65
2024/02/24 05:58:09;;;;;;;29.77;20.48;;;;;;;-145.63;100.00;61273.97;5005144;28;20041;-64
2024/02/24 06:00:35;;;;;;;26.70;20.50;;;;;;;-145.63;100.00;61273.97;5013297;28;20030;-64
2024/02/24 06:03:00;;;;;;;29.40;21.77;;;;;;;-145.63;100.00;61273.97;5005597;28;20034;-65
2024/02/24 06:05:26;;;;;;;31.70;22.02;;;;;;;-145.63;100.00;61273.97;5011564;28;20026;-63
2024/02/24 06:07:52;;;;;;;30.92;21.50;;;;;;;-145.63;100.00;61273.97;5003134;28;20030;-66
2024/02/24 06:10:18;;;;;;;30.40;21.45;;;;;;;-145.63;100.00;61273.97;5005325;28;20030;-65
2024/02/24 06:12:44;;;;;;;31.52;21.67;;;;;;;-145.63;100.00;61273.97;5002500;28;20084;-63
2024/02/24 06:15:13;;;;;;;31.00;22.13;;;;;;;-145.63;100.00;61273.97;4994119;28;20030;-65
2024/02/24 06:17:38;;;;;;;30.10;21.48;;;;;;;-145.63;100.00;61273.97;5010446;28;20034;-64
2024/02/24 06:20:05;;;;;;;31.83;21.70;;;;;;;-145.63;100.00;61273.97;5001693;28;20460;-64
2024/02/24 06:22:30;;;;;;;32.63;22.23;;;;;;;-145.63;100.00;61273.97;5000477;28;20030;-64
2024/02/24 06:24:56;;;;;;;29.55;21.42;;;;;;;-145.63;100.00;61273.97;5013253;28;20451;-63
2024/02/24 06:27:22;;;;;;;30.08;21.77;;;;;;;-145.63;100.00;61273.97;5013289;28;20033;-63
2024/02/24 06:29:47;;;;;;;33.53;22.50;;;;;;;-145.63;100.00;61273.97;5012620;28;20034;-64
2024/02/24 06:32:13;;;;;;;35.22;22.58;;;;;;;-145.63;100.00;61273.97;5004113;28;20083;-63
2024/02/24 06:34:43;;;;;;;29.27;20.85;;;;;;;-145.63;100.00;61273.97;5013373;28;20517;-63
2024/02/24 06:37:08;;;;;;;30.05;20.90;;;;;;;-145.63;100.00;61273.97;5013453;28;20041;-62
2024/02/24 06:39:34;;;;;;;31.75;21.05;;;;;;;-145.63;100.00;61273.97;5011743;28;20034;-64
2024/02/24 06:42:00;;;;;;;32.03;21.73;;;;;;;-145.63;100.00;61273.97;5014752;28;20049;-64
2024/02/24 06:44:25;;;;;;;32.25;21.08;;;;;;;-145.63;100.00;61273.97;5017054;28;20038;-64
2024/02/24 06:46:51;;;;;;;31.73;22.20;;;;;;;-145.63;100.00;61273.97;5013865;28;20080;-65
2024/02/24 06:49:17;;;;;;;30.98;21.33;;;;;;;-145.63;100.00;61273.97;5014011;28;20034;-62
2024/02/24 06:51:42;;;;;;;32.30;21.45;;;;;;;-145.63;100.00;61273.97;5014524;28;20030;-63
2024/02/24 06:54:09;;;;;;;30.98;21.50;;;;;;;-145.63;100.00;61273.97;5016300;28;20037;-63
2024/02/24 06:56:35;;;;;;;34.78;21.85;;;;;;;-145.63;100.00;61273.97;5016260;28;20104;-63
2024/02/24 06:59:05;;;;;;;30.02;20.55;;;;;;;-145.63;100.00;61273.97;5007027;28;20064;-64
2024/02/24 07:01:32;;;;;;;34.25;21.67;;;;;;;-145.63;100.00;61273.97;5003790;28;20536;-63
2024/02/24 07:03:58;;;;;;;30.88;21.23;;;;;;;-145.63;100.00;61273.97;5016762;28;20022;-63
2024/02/24 07:06:24;;;;;;;30.27;20.52;;;;;;;-145.63;100.00;61273.97;5016039;28;20083;-63
2024/02/24 07:08:49;;;;;;;31.60;20.85;;;;;;;-145.63;100.00;61273.97;5013690;28;20057;-64
2024/02/24 07:11:15;;;;;;;32.17;21.15;;;;;;;-145.63;100.00;61273.97;5013821;28;20030;-64
2024/02/24 07:13:41;;;;;;;31.23;21.58;;;;;;;-145.63;100.00;61273.97;5017891;28;20049;-63
2024/02/24 07:16:10;;;;;;;30.38;21.33;;;;;;;-145.63;100.00;61273.97;5014622;28;20034;-63
2024/02/24 07:18:37;;;;;;;32.53;21.15;;;;;;;-145.63;100.00;61273.97;5015777;28;20105;-66
2024/02/24 07:21:03;;;;;;;32.17;21.83;;;;;;;-145.63;100.00;61273.97;5016680;28;20379;-64
2024/02/24 07:23:29;;;;;;;33.38;22.00;;;;;;;-145.63;100.00;61273.97;5014871;28;20038;-64
2024/02/24 07:25:55;;;;;;;29.48;20.60;;;;;;;-145.63;100.00;61273.97;5006185;28;20038;-66
2024/02/24 07:28:21;;;;;;;31.80;21.13;;;;;;;-145.63;100.00;61273.97;5010741;28;20084;-64
2024/02/24 07:30:47;;;;;;;27.42;18.98;;;;;;;-145.63;100.00;61273.97;5014995;28;20029;-65
2024/02/24 07:33:15;;;;;;;28.10;20.42;;;;;;;-145.63;100.00;61273.97;5012160;28;20053;-62
2024/02/24 07:35:41;;;;;;;32.38;21.23;;;;;;;-145.63;100.00;61273.97;5012698;28;20104;-63
2024/02/24 07:38:06;;;;;;;29.88;21.13;;;;;;;-145.63;100.00;61273.97;5013909;28;20375;-64
2024/02/24 07:40:34;;;;;;;28.83;20.23;;;;;;;-145.63;100.00;61273.97;5013349;28;20025;-64
2024/02/24 07:43:00;;;;;;;30.08;20.45;;;;;;;-145.63;100.00;61273.97;5015969;28;20026;-63
2024/02/24 07:45:26;;;;;;;30.52;21.40;;;;;;;-145.63;100.00;61273.97;5014697;28;20062;-63
2024/02/24 07:47:55;;;;;;;31.98;22.73;;;;;;;-145.63;100.00;61273.97;5015541;28;20545;-64
2024/02/24 07:50:21;;;;;;;30.70;22.50;;;;;;;-145.63;100.00;61273.97;5015056;28;20033;-64
2024/02/24 07:52:46;;;;;;;30.20;21.33;;;;;;;-145.63;100.00;61273.97;5012165;28;20030;-64
2024/02/24 07:55:12;;;;;;;31.65;21.95;;;;;;;-145.63;100.00;61273.97;5013823;28;20060;-64
2024/02/24 07:57:38;;;;;;;32.58;21.55;;;;;;;-145.63;100.00;61273.97;5012560;28;20096;-64
2024/02/24 08:00:05;;;;;;;32.30;21.35;;;;;;;-145.63;100.00;61273.97;5012128;28;20361;-65
2024/02/24 08:02:32;;;;;;;28.52;20.73;;;;;;;-145.63;100.00;61273.97;5013147;28;20466;-64
2024/02/24 08:04:58;;;;;;;29.67;21.48;;;;;;;-145.63;100.00;61273.97;5015047;28;20033;-63
2024/02/24 08:07:24;;;;;;;30.90;21.95;;;;;;;-145.63;100.00;61273.97;5012239;28;20025;-64
2024/02/24 08:09:49;;;;;;;31.08;22.15;;;;;;;-145.63;100.00;61273.97;5014474;28;20085;-63
2024/02/24 08:12:18;;;;;;;31.73;22.23;;;;;;;-145.63;100.00;61273.97;5013404;28;20104;-63
2024/02/24 08:14:44;;;;;;;31.83;20.40;;;;;;;-145.63;100.00;61273.97;5012965;28;20022;-64
2024/02/24 08:17:11;;;;;;;31.30;21.42;;;;;;;-145.63;100.00;61273.97;5014852;28;20040;-63
2024/02/24 08:19:36;;;;;;;27.52;20.95;;;;;;;-145.63;100.00;61273.97;5014806;28;20044;-62
2024/02/24 08:22:05;;;;;;;29.40;20.20;;;;;;;-145.63;100.00;61273.97;5013302;28;20388;-63
2024/02/24 08:24:31;;;;;;;32.80;20.30;;;;;;;-145.63;100.00;61273.97;5014683;28;20037;-63
2024/02/24 08:26:57;;;;;;;28.88;21.77;;;;;;;-145.63;100.00;61273.97;5014812;28;20092;-63
2024/02/24 08:29:23;;;;;;;28.40;20.48;;;;;;;-145.63;100.00;61273.97;5001257;28;20468;-64
2024/02/24 08:31:48;;;;;;;31.90;21.88;;;;;;;-145.63;100.00;61273.97;5003375;28;20133;-65
2024/02/24 08:34:14;;;;;;;32.53;21.50;;;;;;;-145.63;100.00;61273.97;5010966;28;20057;-64
2024/02/24 08:36:39;;;;;;;26.65;18.45;;;;;;;-145.63;100.00;61273.97;4994867;28;20037;-65
2024/02/24 08:39:05;;;;;;;30.20;21.85;;;;;;;-145.63;100.00;61273.97;5013896;28;20084;-64
2024/02/24 08:41:33;;;;;;;30.55;21.67;;;;;;;-145.63;100.00;61273.97;5000182;28;20026;-63
2024/02/24 08:44:01;;;;;;;27.42;20.40;;;;;;;-145.63;100.00;61273.97;4995065;28;20499;-64
2024/02/24 08:46:28;;;;;;;30.02;21.00;;;;;;;-145.63;100.00;61273.97;4999988;28;20028;-63
2024/02/24 08:48:54;;;;;;;29.50;20.25;;;;;;;-145.63;100.00;61273.97;5013809;28;20080;-63
2024/02/24 08:51:21;;;;;;;29.83;21.05;;;;;;;-145.63;100.00;61273.97;4995061;28;20101;-63
2024/02/24 08:53:47;;;;;;;27.70;20.85;;;;;;;-145.63;100.00;61273.97;5010790;28;20100;-64
2024/02/24 08:56:21;;;;;;;29.38;21.38;;;;;;;-145.63;100.00;61273.97;5002937;28;20037;-64
2024/02/24 08:58:47;;;;;;;33.78;20.92;;;;;;;-145.63;100.00;61273.97;5007456;28;20031;-64
2024/02/24 09:01:18;;;;;;;27.25;20.08;;;;;;;-145.63;100.00;61273.97;5013750;28;20152;-62
2024/02/24 09:03:44;;;;;;;30.63;20.00;;;;;;;-145.63;100.00;61273.97;5028420;28;20117;-62
2024/02/24 09:06:10;;;;;;;27.45;20.83;;;;;;;-145.63;100.00;61273.97;5013817;28;20030;-63
2024/02/24 09:08:39;;;;;;;28.75;20.55;;;;;;;-145.63;100.00;61273.97;5028473;28;20477;-61
2024/02/24 09:11:05;;;;;;;28.73;20.33;;;;;;;-145.63;100.00;61273.97;5023531;28;20034;-61
2024/02/24 09:13:31;;;;;;;25.33;19.58;;;;;;;-145.63;100.00;61273.97;5012873;28;20022;-62
2024/02/24 09:15:57;;;;;;;28.15;20.38;;;;;;;-145.63;100.00;61273.97;5012512;28;20437;-61
2024/02/24 09:18:24;;;;;;;28.35;20.38;;;;;;;-145.63;100.00;61273.97;5012628;28;20493;-62
2024/02/24 09:20:50;;;;;;;29.88;20.75;;;;;;;-145.63;100.00;61273.97;5009004;28;20021;-62
2024/02/24 09:23:15;;;;;;;29.98;21.55;;;;;;;-145.63;100.00;61273.97;5001637;28;20418;-63
2024/02/24 09:25:41;;;;;;;27.88;20.50;;;;;;;-145.63;100.00;61273.97;4994374;28;20027;-64
2024/02/24 09:28:07;;;;;;;30.90;21.05;;;;;;;-145.63;100.00;61273.97;4996760;28;20038;-63
2024/02/24 09:30:32;;;;;;;30.10;20.90;;;;;;;-145.63;100.00;61273.97;5013754;28;20109;-63
2024/02/24 09:32:59;;;;;;;29.15;20.70;;;;;;;-145.63;100.00;61273.97;4996891;28;20093;-63
2024/02/24 09:35:24;;;;;;;27.90;20.08;;;;;;;-145.63;100.00;61273.97;5006474;28;20531;-64
2024/02/24 09:37:50;;;;;;;29.23;20.13;;;;;;;-145.63;100.00;61273.97;5013411;28;20117;-64
2024/02/24 09:40:16;;;;;;;28.70;20.13;;;;;;;-145.63;100.00;61273.97;5011056;28;20041;-63
2024/02/24 09:42:42;;;;;;;26.90;19.15;;;;;;;-145.63;100.00;61273.97;5013161;28;20061;-63
2024/02/24 09:45:15;;;;;;;26.63;18.50;;;;;;;-145.63;100.00;61273.97;5012687;28;20084;-63
2024/02/24 09:47:43;;;;;;;27.50;18.85;;;;;;;-145.63;100.00;61273.97;5012204;28;20022;-64
2024/02/24 09:50:11;;;;;;;29.23;20.63;;;;;;;-145.63;100.00;61273.97;5012398;28;20044;-63
2024/02/24 09:52:41;;;;;;;32.13;20.63;;;;;;;-145.63;100.00;61273.97;5012940;28;20108;-63
2024/02/24 09:55:08;;;;;;;28.73;20.07;;;;;;;-145.63;100.00;61273.97;5012987;28;20022;-63
2024/02/24 09:57:37;;;;;;;27.08;20.02;;;;;;;-145.63;100.00;61273.97;5011161;28;20041;-63
2024/02/24 10:00:05;;;;;;;29.10;20.83;;;;;;;-145.63;100.00;61273.97;5012134;28;20075;-63
2024/02/24 10:02:31;;;;;;;26.08;19.65;;;;;;;-145.63;100.00;61273.97;5013593;28;20050;-63
2024/02/24 10:04:57;;;;;;;26.65;19.73;;;;;;;-145.63;100.00;61273.97;5012466;28;20030;-63
2024/02/24 10:07:23;;;;;;;26.67;19.42;;;;;;;-145.63;100.00;61273.97;5012903;28;20034;-63
2024/02/24 10:09:49;;;;;;;29.88;19.58;;;;;;;-145.63;100.00;61273.97;5012814;28;20033;-64
2024/02/24 10:12:14;;;;;;;23.92;18.40;;;;;;;-145.63;100.00;61273.97;5012056;28;20479;-64
2024/02/24 10:14:40;;;;;;;27.17;19.58;;;;;;;-145.63;100.00;61273.97;5002063;28;20498;-64
2024/02/24 10:17:07;;;;;;;26.15;18.55;;;;;;;-145.63;100.00;61273.97;5016527;28;20072;-64
2024/02/24 10:19:33;;;;;;;27.50;18.90;;;;;;;-145.63;100.00;61273.97;5013716;28;20033;-63
2024/02/24 10:22:05;;;;;;;29.65;20.58;;;;;;;-145.63;100.00;61273.97;5010648;28;20038;-64
2024/02/24 10:24:34;;;;;;;26.83;19.13;;;;;;;-145.63;100.00;61273.97;5015950;28;20497;-63
2024/02/24 10:27:01;;;;;;;23.90;17.75;;;;;;;-145.63;100.00;61273.97;4999954;28;20022;-63
2024/02/24 10:29:30;;;;;;;26.73;18.27;;;;;;;-145.63;100.00;61273.97;5010000;28;20030;-63
2024/02/24 10:32:02;;;;;;;28.30;17.23;;;;;;;-145.63;100.00;61273.97;5016233;28;20050;-64
2024/02/24 10:34:28;;;;;;;24.70;17.73;;;;;;;-145.63;100.00;61273.97;5016789;28;20025;-63
2024/02/24 10:37:00;;;;;;;25.60;17.65;;;;;;;-145.63;100.00;61273.97;5016691;28;20026;-64
2024/02/24 10:39:26;;;;;;;24.95;17.58;;;;;;;-145.63;100.00;61273.97;4997023;28;20080;-64
2024/02/24 10:41:52;;;;;;;24.92;18.50;;;;;;;-145.63;100.00;61273.97;5008608;28;20120;-63
2024/02/24 10:44:20;;;;;;;24.15;18.10;;;;;;;-145.63;100.00;61273.97;5009547;28;20038;-64
2024/02/24 10:46:49;;;;;;;22.67;16.27;;;;;;;-145.63;100.00;61273.97;5016492;28;20053;-63
2024/02/24 10:49:15;;;;;;;26.90;19.10;;;;;;;-145.63;100.00;61273.97;5014010;28;20038;-64
2024/02/24 10:51:45;;;;;;;28.45;19.25;;;;;;;-145.63;100.00;61273.97;4996719;28;20034;-62